If you wish to contribute or participate in the discussions about articles you are invited to join SKYbrary as a registered user

 Actions

Aktobe / Aktyubinsk Airport

From SKYbrary Wiki

UATT
Airport
ICAO: UATT – IATA: AKX
Summary
Name Aktobe / Aktyubinsk Airport
Region Asia and Pacific
Territory Kazakhstan KZ.gif
Location Aktobe
Serving Aktobe
Elevation 224.942 m
738 ft
738 ft224.942 m
Coordinates 50° 14' 59.4218", 57° 12' 8.5583"
Runways
Designator Length Width Surface ROPS
13/31 3097 m10,160.761 ft 60 m196.85 ft CON /
METAR
Observation UATT 132200Z 00000MPS CAVOK M20/M21 Q1038 R13/820155 NOSIG RMK QFE758/1011
Station Aktjubinsk
Date/Time 13 December 2017 22:00:00
Wind direction
Wind speed kts
Lowest cloud amount clouds and visibility OK
Temperature
Dew point
Humidity 91%
QNH 1038 hPa
Weather condition n/a

BS
Tag(s) Bird Strike
CFIT
Tag(s) Altimeter Temperature Error Correction

Aktobe Airport

ICAO: UATT IATA: AKX

Description

International airport serving the city of Aktobe.

Climatology

Cold Semi-arid climate (Köppen climate classification BSk). - Hot, sometimes extremely hot summers and cold, sometimes very cold winters. Some snowfall during the winter. Areas featuring cold semi-arid climates are sometimes subject to major temperature swings during a 24 hour period.

Maps

Terrain

Loading map...

Airport Layout

Loading map...


Accidents & Serious Incidents at or in vicinity of UATT

None on SKYbrary